Time;durP1;ratioP1;P1;durP2;ratioP2;P2;SDS_P1;SDS_P2;PMS_P1;PMS_P2;Temp;Humidity;BMP_temperature;BMP_pressure;BME280_temperature;BME280_humidity;BME280_pressure;Samples;Min_cycle;Max_cycle;Signal;HPM_P1;HPM_P2
2022/10/17 06:34:48;;;;;;;6.00;3.25;;;13.50;99.90;;;;;;10509086;23;20050;-75
2022/10/17 06:39:50;;;;;;;8.68;3.45;;;13.60;99.90;;;;;;10337177;28;20046;-77
2022/10/17 06:44:52;;;;;;;11.30;2.50;;;13.60;99.90;;;;;;10336657;28;20054;-79
2022/10/17 06:49:55;;;;;;;10.25;2.75;;;13.30;99.90;;;;;;10336008;28;20054;-78
2022/10/17 06:54:57;;;;;;;8.18;2.80;;;13.40;99.90;;;;;;10335386;28;20101;-77
2022/10/17 06:59:59;;;;;;;5.35;2.55;;;13.50;99.90;;;;;;10336351;28;20081;-79
2022/10/17 07:05:02;;;;;;;10.07;3.00;;;13.40;99.90;;;;;;10335610;28;20054;-78
2022/10/17 07:10:07;;;;;;;8.63;3.03;;;13.30;99.90;;;;;;10335539;28;20077;-78
2022/10/17 07:15:10;;;;;;;7.00;3.10;;;13.30;99.90;;;;;;10335117;28;20050;-77
2022/10/17 07:20:13;;;;;;;9.13;2.95;;;13.30;99.90;;;;;;10334786;28;20393;-77
2022/10/17 07:25:15;;;;;;;8.88;3.25;;;13.40;99.90;;;;;;10339210;28;20077;-80
2022/10/17 07:30:18;;;;;;;12.05;3.60;;;13.60;99.90;;;;;;10353554;28;20054;-77
2022/10/17 07:35:22;;;;;;;8.43;3.00;;;13.80;99.90;;;;;;10338836;28;20073;-77
2022/10/17 07:40:24;;;;;;;10.85;2.97;;;14.00;99.90;;;;;;10331474;28;20100;-81
2022/10/17 07:45:26;;;;;;;8.40;3.25;;;14.10;99.90;;;;;;10329258;28;20050;-78
2022/10/17 07:50:30;;;;;;;10.73;3.35;;;14.30;99.90;;;;;;10328512;28;20056;-79
2022/10/17 07:55:32;;;;;;;9.25;3.63;;;14.50;99.90;;;;;;10328731;28;20047;-79
2022/10/17 08:00:34;;;;;;;7.35;2.70;;;14.60;99.90;;;;;;10325354;28;20077;-78
2022/10/17 08:05:37;;;;;;;8.35;3.40;;;14.70;99.90;;;;;;10328422;28;20144;-79
2022/10/17 08:10:39;;;;;;;6.93;2.97;;;14.80;99.90;;;;;;10328401;28;20054;-77
2022/10/17 08:15:41;;;;;;;8.98;2.90;;;14.90;99.90;;;;;;10327724;28;20104;-80
2022/10/17 08:20:44;;;;;;;5.22;2.60;;;15.00;99.90;;;;;;10328187;28;20058;-77
2022/10/17 08:25:46;;;;;;;7.75;2.72;;;15.10;99.90;;;;;;10328055;28;20060;-79
2022/10/17 08:30:48;;;;;;;12.20;3.08;;;15.30;99.90;;;;;;10326787;28;20511;-79
2022/10/17 08:35:51;;;;;;;5.40;2.50;;;15.40;99.90;;;;;;10328109;28;20136;-77
2022/10/17 08:40:55;;;;;;;10.73;2.42;;;15.60;99.90;;;;;;10328158;28;20051;-77
2022/10/17 08:46:01;;;;;;;6.82;2.40;;;15.70;99.90;;;;;;10327336;28;20050;-76
2022/10/17 08:51:13;;;;;;;7.20;2.60;;;15.80;99.90;;;;;;10327196;28;20062;-79
2022/10/17 08:56:20;;;;;;;8.20;2.40;;;15.90;99.90;;;;;;10326315;28;20050;-77
2022/10/17 09:01:34;;;;;;;6.00;2.30;;;16.10;99.90;;;;;;10326920;28;20054;-79
2022/10/17 09:06:44;;;;;;;6.72;2.35;;;16.20;99.90;;;;;;10317098;28;20062;-79
2022/10/17 09:12:03;;;;;;;8.57;2.63;;;16.40;99.90;;;;;;10330909;28;20117;-78
2022/10/17 09:17:22;;;;;;;5.82;2.28;;;16.50;99.90;;;;;;10334716;28;20050;-75
2022/10/17 09:22:30;;;;;;;6.75;2.30;;;16.70;99.90;;;;;;10358151;28;20054;-78
2022/10/17 09:27:38;;;;;;;5.72;2.10;;;16.90;99.90;;;;;;10354163;28;20050;-79
2022/10/17 09:32:41;;;;;;;4.15;2.00;;;17.10;99.90;;;;;;10334707;28;20082;-76
2022/10/17 09:37:45;;;;;;;4.70;2.00;;;17.30;99.90;;;;;;10335426;28;20439;-77
2022/10/17 09:42:49;;;;;;;6.25;1.77;;;17.50;99.90;;;;;;10334039;28;20129;-77
2022/10/17 09:48:01;;;;;;;4.15;1.90;;;17.70;99.90;;;;;;10333779;28;20526;-79
2022/10/17 09:53:15;;;;;;;8.95;2.10;;;17.90;99.90;;;;;;10333571;28;20054;-79
2022/10/17 09:58:17;;;;;;;6.43;2.00;;;18.10;99.90;;;;;;10331579;28;20061;-76
2022/10/17 10:03:21;;;;;;;8.48;2.28;;;18.30;99.90;;;;;;10332303;28;20101;-77
2022/10/17 10:08:29;;;;;;;7.35;2.13;;;18.60;99.90;;;;;;10332627;28;20058;-75
2022/10/17 10:13:34;;;;;;;6.90;2.00;;;18.70;99.90;;;;;;10332407;28;20479;-76
2022/10/17 10:18:36;;;;;;;6.00;2.00;;;18.80;99.90;;;;;;10333095;28;20451;-75
2022/10/17 10:23:41;;;;;;;5.57;1.70;;;19.00;99.90;;;;;;10334797;28;20054;-77
2022/10/17 10:28:54;;;;;;;6.13;1.92;;;19.30;99.90;;;;;;10337488;28;20050;-77
2022/10/17 10:33:57;;;;;;;5.70;2.00;;;19.50;99.90;;;;;;10336908;28;20078;-77
2022/10/17 10:39:00;;;;;;;8.27;2.30;;;19.60;99.90;;;;;;10336706;28;20047;-75
2022/10/17 10:44:05;;;;;;;5.82;2.10;;;19.60;99.90;;;;;;10336371;28;20050;-79
2022/10/17 10:49:29;;;;;;;6.07;1.90;;;19.80;99.90;;;;;;10336378;28;20050;-78
2022/10/17 10:54:38;;;;;;;6.95;2.08;;;20.00;99.90;;;;;;10336501;28;20054;-78
2022/10/17 10:59:48;;;;;;;4.88;1.75;;;20.10;99.90;;;;;;10336006;28;20483;-78
2022/10/17 11:04:59;;;;;;;5.60;1.90;;;20.20;99.90;;;;;;10335903;28;20097;-80
2022/10/17 11:10:17;;;;;;;6.60;2.30;;;20.30;99.90;;;;;;10335590;28;20047;-78
2022/10/17 11:15:25;;;;;;;12.93;2.17;;;20.40;99.90;;;;;;10335577;28;20051;-77
2022/10/17 11:20:36;;;;;;;4.32;2.08;;;20.50;99.90;;;;;;10336148;28;20104;-76
2022/10/17 11:25:41;;;;;;;5.07;2.10;;;20.60;99.90;;;;;;10335617;28;20050;-76
2022/10/17 11:30:50;;;;;;;6.32;1.90;;;20.70;99.90;;;;;;10335710;28;20057;-79
2022/10/17 11:35:57;;;;;;;5.28;2.10;;;20.80;99.90;;;;;;10342288;28;20050;-83
2022/10/17 11:41:00;;;;;;;6.90;2.22;;;20.90;99.90;;;;;;10345248;28;20093;-82
2022/10/17 11:46:10;;;;;;;5.43;2.00;;;21.00;99.90;;;;;;10344147;28;20046;-84
2022/10/17 11:51:15;;;;;;;5.88;2.08;;;21.20;99.90;;;;;;10356438;28;20050;-83
2022/10/17 11:56:29;;;;;;;3.88;1.80;;;21.50;99.90;;;;;;10364441;28;20050;-82
2022/10/17 12:01:38;;;;;;;3.58;1.50;;;21.80;99.20;;;;;;10339274;28;20078;-82
2022/10/17 12:06:56;;;;;;;7.32;3.47;;;22.10;98.60;;;;;;10337589;28;20046;-82
2022/10/17 12:12:02;;;;;;;4.15;2.08;;;22.30;97.40;;;;;;10342238;28;20494;-80
2022/10/17 12:17:06;;;;;;;7.65;2.30;;;22.80;93.70;;;;;;10333665;28;20190;-79
2022/10/17 12:22:21;;;;;;;6.35;2.00;;;23.00;93.70;;;;;;10327431;28;20326;-78
2022/10/17 12:27:46;;;;;;;6.65;2.38;;;23.30;91.80;;;;;;10327620;28;20084;-80
2022/10/17 12:32:59;;;;;;;4.65;1.88;;;23.60;91.50;;;;;;10327294;28;20054;-80
2022/10/17 12:38:27;;;;;;;6.30;1.88;;;23.80;88.30;;;;;;10327500;28;20042;-80
2022/10/17 12:43:53;;;;;;;3.95;1.60;;;24.10;87.40;;;;;;10327570;28;20060;-80
2022/10/17 12:49:37;;;;;;;5.88;1.80;;;24.50;85.20;;;;;;10334083;28;20096;-79
2022/10/17 12:54:41;;;;;;;4.57;1.65;;;24.80;86.50;;;;;;10336155;28;20369;-80
2022/10/17 12:59:46;;;;;;;3.53;1.35;;;25.30;81.30;;;;;;10334990;28;20459;-77
2022/10/17 13:04:50;;;;;;;3.92;1.30;;;25.50;78.50;;;;;;10335190;28;20050;-79
2022/10/17 13:09:53;;;;;;;4.50;1.45;;;25.60;73.80;;;;;;10334968;28;20090;-79
2022/10/17 13:14:57;;;;;;;7.45;1.35;;;25.90;72.20;;;;;;10335390;28;20058;-80
2022/10/17 13:19:59;;;;;;;4.30;1.40;;;26.10;70.50;;;;;;10334832;28;20055;-78
2022/10/17 13:25:12;;;;;;;5.07;1.00;;;26.30;67.70;;;;;;10334995;28;20082;-77
2022/10/17 13:30:28;;;;;;;5.53;1.20;;;26.60;65.30;;;;;;10335532;28;20058;-78
2022/10/17 13:35:34;;;;;;;5.22;1.20;;;27.10;63.30;;;;;;10335716;28;20463;-78
2022/10/17 13:40:42;;;;;;;5.07;1.25;;;27.60;61.50;;;;;;10335338;28;20498;-79
2022/10/17 13:45:49;;;;;;;4.13;1.30;;;28.00;61.60;;;;;;10336934;28;20543;-78
2022/10/17 13:50:55;;;;;;;3.55;1.20;;;29.50;58.80;;;;;;10332804;28;20456;-72
2022/10/17 13:56:00;;;;;;;4.07;1.20;;;30.80;57.30;;;;;;10333152;28;20110;-75
2022/10/17 14:01:04;;;;;;;5.18;1.75;;;31.80;55.30;;;;;;10332868;28;20093;-75
2022/10/17 14:06:16;;;;;;;3.88;1.20;;;31.80;53.10;;;;;;10333198;28;20046;-74
2022/10/17 14:11:35;;;;;;;4.30;1.35;;;32.70;53.10;;;;;;10332436;28;20153;-74
2022/10/17 14:16:42;;;;;;;5.45;1.70;;;32.60;51.80;;;;;;10332659;28;20522;-76
2022/10/17 14:21:48;;;;;;;4.80;1.38;;;32.70;53.00;;;;;;10332051;28;20073;-75
2022/10/17 14:26:52;;;;;;;6.10;1.20;;;33.30;50.30;;;;;;10332435;28;20085;-75
2022/10/17 14:32:02;;;;;;;5.60;1.10;;;33.70;49.60;;;;;;10338880;28;20062;-74
2022/10/17 14:37:10;;;;;;;6.18;1.30;;;34.00;48.80;;;;;;10366411;28;20096;-74
2022/10/17 14:42:19;;;;;;;5.47;1.40;;;34.30;48.10;;;;;;10333031;28;20130;-75
2022/10/17 14:47:27;;;;;;;4.38;1.33;;;34.10;48.40;;;;;;10330589;28;20049;-76
2022/10/17 14:52:31;;;;;;;3.38;1.20;;;34.10;47.70;;;;;;10329453;28;20042;-74
2022/10/17 14:57:43;;;;;;;5.80;2.05;;;34.30;49.40;;;;;;10330510;28;20108;-74
2022/10/17 15:02:48;;;;;;;3.55;1.20;;;34.80;47.60;;;;;;10330449;28;20508;-77
2022/10/17 15:07:51;;;;;;;6.25;1.25;;;34.90;48.20;;;;;;10329511;28;20105;-75
2022/10/17 15:12:53;;;;;;;11.02;6.32;;;34.80;48.00;;;;;;10330810;28;20050;-74
2022/10/17 15:17:56;;;;;;;3.78;1.60;;;35.10;47.80;;;;;;10330051;28;20148;-76
2022/10/17 15:23:00;;;;;;;7.15;1.58;;;34.70;48.20;;;;;;10328597;28;20047;-75
2022/10/17 15:28:02;;;;;;;6.95;1.88;;;34.30;51.60;;;;;;10328657;28;20128;-74
2022/10/17 15:33:06;;;;;;;6.22;2.00;;;32.80;53.00;;;;;;10346671;28;20113;-75
2022/10/17 15:38:08;;;;;;;8.27;2.38;;;33.90;52.60;;;;;;10367934;28;20074;-74
2022/10/17 15:43:10;;;;;;;3.53;1.80;;;33.70;52.70;;;;;;10331449;28;20050;-75
2022/10/17 15:48:21;;;;;;;6.07;2.05;;;33.40;53.40;;;;;;10327236;28;20085;-74
2022/10/17 15:53:23;;;;;;;5.47;2.03;;;33.10;54.80;;;;;;10316613;28;20054;-75
2022/10/17 15:58:27;;;;;;;5.70;2.10;;;32.40;55.60;;;;;;10325804;28;20482;-73
2022/10/17 16:03:30;;;;;;;9.30;3.00;;;31.80;56.80;;;;;;10326423;28;20060;-78
2022/10/17 16:08:32;;;;;;;10.02;2.50;;;30.90;58.70;;;;;;10326548;28;20481;-74
2022/10/17 16:13:34;;;;;;;9.82;3.22;;;29.90;61.30;;;;;;10327799;28;20086;-74
2022/10/17 16:18:37;;;;;;;9.85;3.00;;;29.00;64.00;;;;;;10327448;28;20086;-74
2022/10/17 16:23:39;;;;;;;16.50;2.95;;;28.30;65.80;;;;;;10327135;28;20053;-73
2022/10/17 16:28:41;;;;;;;8.50;3.10;;;27.60;67.90;;;;;;10326060;28;20082;-74
2022/10/17 16:33:45;;;;;;;13.75;3.20;;;27.10;68.50;;;;;;10309462;28;20121;-75
2022/10/17 16:38:50;;;;;;;11.45;4.40;;;26.60;71.80;;;;;;10327913;28;20112;-74
2022/10/17 16:43:54;;;;;;;14.55;3.83;;;26.00;74.20;;;;;;10326905;28;20133;-75
2022/10/17 16:48:58;;;;;;;8.18;2.97;;;25.60;76.40;;;;;;10316501;28;20082;-74
2022/10/17 16:54:00;;;;;;;11.45;4.18;;;25.30;76.70;;;;;;10301832;28;20051;-74
2022/10/17 16:59:03;;;;;;;9.63;4.38;;;24.90;78.90;;;;;;10306691;28;20081;-73
2022/10/17 17:04:07;;;;;;;11.60;4.53;;;24.70;81.20;;;;;;10308606;28;20051;-74
2022/10/17 17:09:10;;;;;;;7.97;3.33;;;24.40;83.10;;;;;;10317446;28;20057;-74
2022/10/17 17:14:12;;;;;;;7.15;2.38;;;24.10;85.10;;;;;;10315513;28;20149;-74
2022/10/17 17:19:16;;;;;;;10.20;3.10;;;23.80;86.50;;;;;;10307936;28;20051;-75
2022/10/17 17:24:20;;;;;;;9.40;3.00;;;23.60;89.00;;;;;;10318683;28;20054;-75
2022/10/17 17:29:24;;;;;;;7.30;2.55;;;23.40;90.50;;;;;;10342273;28;20492;-81
2022/10/17 17:34:27;;;;;;;10.73;3.10;;;23.20;91.40;;;;;;10336500;28;20065;-77
2022/10/17 17:39:29;;;;;;;6.30;2.60;;;22.90;92.00;;;;;;10342459;28;20104;-77
2022/10/17 17:44:31;;;;;;;7.55;2.80;;;22.70;93.10;;;;;;10343585;28;20557;-77
2022/10/17 17:49:34;;;;;;;5.53;2.42;;;22.50;93.90;;;;;;10346659;28;20054;-78
2022/10/17 17:54:36;;;;;;;10.93;4.63;;;22.30;93.80;;;;;;10332437;28;20133;-80
2022/10/17 17:59:40;;;;;;;13.23;4.18;;;22.10;95.10;;;;;;10315364;28;20082;-76
2022/10/17 18:04:43;;;;;;;20.20;4.13;;;21.80;96.20;;;;;;10347737;28;20070;-78
2022/10/17 18:09:45;;;;;;;7.55;3.20;;;21.60;97.20;;;;;;10360553;28;20101;-78
2022/10/17 18:14:47;;;;;;;8.07;3.40;;;21.10;98.30;;;;;;10330483;28;20090;-79
2022/10/17 18:19:51;;;;;;;10.65;3.17;;;20.90;99.00;;;;;;10294486;28;20416;-77
2022/10/17 18:24:53;;;;;;;9.68;2.80;;;20.90;99.60;;;;;;10330542;28;20054;-78
2022/10/17 18:29:55;;;;;;;9.95;3.55;;;20.80;99.80;;;;;;10329183;28;20546;-78
2022/10/17 18:34:59;;;;;;;10.60;4.15;;;20.70;99.90;;;;;;10294384;28;20126;-79
2022/10/17 18:40:01;;;;;;;12.70;3.45;;;20.60;99.90;;;;;;10313695;28;20054;-78
2022/10/17 18:45:05;;;;;;;21.15;3.80;;;20.50;99.90;;;;;;10316500;28;20061;-78
2022/10/17 18:50:08;;;;;;;12.77;3.13;;;20.40;99.90;;;;;;10324519;28;20058;-78
2022/10/17 18:55:10;;;;;;;15.02;3.78;;;20.40;99.90;;;;;;10315961;28;20128;-76
2022/10/17 19:00:13;;;;;;;12.77;3.47;;;20.30;99.90;;;;;;10310052;28;20453;-77
2022/10/17 19:05:17;;;;;;;17.10;2.90;;;20.10;99.90;;;;;;10330118;28;20051;-76
2022/10/17 19:10:19;;;;;;;11.73;3.00;;;19.90;99.90;;;;;;10326771;28;20471;-74
2022/10/17 19:15:21;;;;;;;12.27;3.05;;;19.70;99.90;;;;;;10321086;28;20078;-76
2022/10/17 19:20:24;;;;;;;14.63;3.58;;;19.70;99.90;;;;;;10325942;28;20105;-75
2022/10/17 19:25:29;;;;;;;12.70;2.78;;;19.60;99.90;;;;;;10300333;28;20061;-75
2022/10/17 19:30:31;;;;;;;18.83;3.05;;;19.50;99.90;;;;;;10324927;28;20455;-76
2022/10/17 19:35:34;;;;;;;9.00;3.60;;;19.40;99.90;;;;;;10329209;28;20070;-78
2022/10/17 19:40:40;;;;;;;13.88;3.50;;;19.30;99.90;;;;;;10292749;28;20050;-78
2022/10/17 19:45:42;;;;;;;21.67;3.20;;;19.30;99.90;;;;;;10314140;28;20105;-77
2022/10/17 19:50:45;;;;;;;13.55;3.70;;;19.30;99.90;;;;;;10327527;28;20495;-76
2022/10/17 19:55:47;;;;;;;11.15;3.45;;;19.30;99.90;;;;;;10314745;28;20124;-77
2022/10/17 20:00:51;;;;;;;13.40;3.75;;;19.10;99.90;;;;;;10349745;28;20053;-77
2022/10/17 20:05:54;;;;;;;10.00;3.70;;;19.00;99.90;;;;;;10295133;28;20050;-78
2022/10/17 20:10:56;;;;;;;9.98;3.53;;;18.90;99.90;;;;;;10297891;28;20082;-77
2022/10/17 20:15:59;;;;;;;10.77;3.55;;;18.90;99.90;;;;;;10321610;28;20108;-79
2022/10/17 20:21:06;;;;;;;13.93;3.70;;;18.80;99.90;;;;;;10327298;28;20492;-79
2022/10/17 20:26:13;;;;;;;11.35;3.53;;;18.70;99.90;;;;;;10330019;28;20139;-78
2022/10/17 20:31:16;;;;;;;13.02;3.67;;;18.60;99.90;;;;;;10326840;28;20058;-79
2022/10/17 20:36:22;;;;;;;11.45;3.47;;;18.50;99.90;;;;;;10321925;28;20224;-78
2022/10/17 20:41:25;;;;;;;16.98;3.90;;;18.50;99.90;;;;;;10324544;28;20420;-80
2022/10/17 20:46:27;;;;;;;11.10;3.53;;;18.40;99.90;;;;;;10292481;28;20468;-78
2022/10/17 20:51:31;;;;;;;14.23;3.83;;;18.30;99.90;;;;;;10323649;28;20086;-78
2022/10/17 20:56:34;;;;;;;13.48;3.30;;;18.20;99.90;;;;;;10331674;28;20072;-78
2022/10/17 21:01:36;;;;;;;12.13;3.50;;;17.90;99.90;;;;;;10321245;28;20412;-78
2022/10/17 21:06:40;;;;;;;14.65;3.65;;;17.90;99.90;;;;;;10311460;28;20054;-77
2022/10/17 21:11:42;;;;;;;12.35;3.63;;;17.80;99.90;;;;;;10342366;28;20112;-77
2022/10/17 21:16:44;;;;;;;14.70;3.58;;;17.80;99.90;;;;;;10342051;28;20046;-79
2022/10/17 21:21:47;;;;;;;9.70;4.45;;;17.70;99.90;;;;;;10342718;28;20069;-77
2022/10/17 21:26:54;;;;;;;12.25;4.93;;;17.60;99.90;;;;;;10341824;28;20494;-79
2022/10/17 21:31:56;;;;;;;15.25;4.38;;;17.40;99.90;;;;;;10338661;28;20058;-78
2022/10/17 21:36:59;;;;;;;17.92;4.95;;;17.40;99.90;;;;;;10339282;28;20545;-80
2022/10/17 21:42:01;;;;;;;10.75;4.20;;;17.40;99.90;;;;;;10334479;28;20136;-77
2022/10/17 21:47:03;;;;;;;11.85;4.18;;;17.50;99.90;;;;;;10341142;28;20047;-77
2022/10/17 21:52:06;;;;;;;10.45;4.30;;;17.50;99.90;;;;;;10327819;28;20054;-77
2022/10/17 21:57:08;;;;;;;10.10;3.85;;;17.20;99.90;;;;;;10328534;28;20046;-80
